createdAt,value
2022-08-25T00:01:39.386Z,4.80
2022-08-25T00:04:10.814Z,5.63
2022-08-25T00:06:39.928Z,4.97
2022-08-25T00:09:08.293Z,4.57
2022-08-25T00:11:37.284Z,4.93
2022-08-25T00:14:07.592Z,4.23
2022-08-25T00:16:34.847Z,5.30
2022-08-25T00:19:10.598Z,5.30
2022-08-25T00:21:38.043Z,5.23
2022-08-25T00:24:05.068Z,4.67
2022-08-25T00:26:32.382Z,5.90
2022-08-25T00:29:01.817Z,4.80
2022-08-25T00:31:38.598Z,5.40
2022-08-25T00:34:12.759Z,5.53
2022-08-25T00:36:39.543Z,5.70
2022-08-25T00:39:07.771Z,5.57
2022-08-25T00:41:35.357Z,5.57
2022-08-25T00:44:05.545Z,5.50
2022-08-25T00:46:38.833Z,5.93
2022-08-25T00:49:25.326Z,5.70
2022-08-25T00:52:01.736Z,5.67
2022-08-25T00:54:37.915Z,5.60
2022-08-25T00:57:07.388Z,4.90
2022-08-25T00:59:34.338Z,5.50
2022-08-25T01:02:01.835Z,6.83
2022-08-25T01:04:28.717Z,6.63
2022-08-25T01:06:57.927Z,5.97
2022-08-25T01:09:24.933Z,6.03
2022-08-25T01:11:51.630Z,6.23
2022-08-25T01:14:21.572Z,5.97
2022-08-25T01:16:51.222Z,6.73
2022-08-25T01:19:21.927Z,6.63
2022-08-25T01:21:51.469Z,7.60
2022-08-25T01:24:29.600Z,7.00
2022-08-25T01:26:56.163Z,8.23
2022-08-25T01:29:25.222Z,8.03
2022-08-25T01:31:58.744Z,7.40
2022-08-25T01:34:28.080Z,8.50
2022-08-25T01:36:56.111Z,7.80
2022-08-25T01:39:23.263Z,8.20
2022-08-25T01:41:58.335Z,8.80
2022-08-25T01:44:26.223Z,8.23
2022-08-25T01:46:53.333Z,8.37
2022-08-25T01:49:20.580Z,8.47
2022-08-25T01:51:52.800Z,8.50
2022-08-25T01:54:20.135Z,8.37
2022-08-25T01:56:46.701Z,9.20
2022-08-25T01:59:16.938Z,10.30
2022-08-25T02:01:50.885Z,10.00
2022-08-25T02:04:27.058Z,10.13
2022-08-25T02:06:53.618Z,10.00
2022-08-25T02:09:20.183Z,9.97
2022-08-25T02:11:47.817Z,9.63
2022-08-25T02:14:15.644Z,10.80
2022-08-25T02:16:46.363Z,9.93
2022-08-25T02:19:13.254Z,10.33
2022-08-25T02:21:40.026Z,9.13
2022-08-25T02:24:07.406Z,9.70
2022-08-25T02:26:36.501Z,10.50
2022-08-25T02:29:04.419Z,10.10
2022-08-25T02:31:31.636Z,10.07
2022-08-25T02:33:58.230Z,11.00
2022-08-25T02:36:25.694Z,10.60
2022-08-25T02:38:52.759Z,10.00
2022-08-25T02:41:22.987Z,9.57
2022-08-25T02:43:57.844Z,10.00
2022-08-25T02:46:25.042Z,10.60
2022-08-25T02:48:52.881Z,9.90
2022-08-25T02:51:22.199Z,10.63
2022-08-25T02:53:49.758Z,9.73
2022-08-25T02:56:18.841Z,9.70
2022-08-25T02:58:46.292Z,9.00
2022-08-25T03:01:14.424Z,9.93
2022-08-25T03:03:44.281Z,10.77
2022-08-25T03:06:13.235Z,10.87
2022-08-25T03:08:40.429Z,10.23
2022-08-25T03:11:07.355Z,10.60
2022-08-25T03:13:34.392Z,11.43
2022-08-25T03:16:04.853Z,11.17
2022-08-25T03:18:31.855Z,10.07
2022-08-25T03:20:58.678Z,10.10
2022-08-25T03:23:25.734Z,10.00
2022-08-25T03:26:14.941Z,10.40
2022-08-25T03:28:41.671Z,10.40
2022-08-25T03:31:09.292Z,11.37
2022-08-25T03:33:38.322Z,10.83
2022-08-25T03:36:06.343Z,10.53
2022-08-25T03:38:33.416Z,9.80
2022-08-25T03:41:00.220Z,10.87
2022-08-25T03:43:26.772Z,10.03
2022-08-25T03:45:53.641Z,10.37
2022-08-25T03:48:20.458Z,9.97
2022-08-25T03:50:50.502Z,10.40
2022-08-25T03:53:20.512Z,10.80
2022-08-25T03:55:47.960Z,10.47
2022-08-25T03:58:15.410Z,9.90
2022-08-25T04:00:42.202Z,10.50
2022-08-25T04:03:08.940Z,10.50
2022-08-25T04:05:35.562Z,10.47
2022-08-25T04:08:02.481Z,10.40
2022-08-25T04:10:29.746Z,9.90
2022-08-25T04:12:57.082Z,10.20
2022-08-25T04:15:30.084Z,11.17
2022-08-25T04:17:59.030Z,10.80
2022-08-25T04:20:26.032Z,10.40
2022-08-25T04:22:52.945Z,10.53
2022-08-25T04:25:19.965Z,10.57
2022-08-25T04:27:46.524Z,10.37
2022-08-25T04:30:13.859Z,10.00
2022-08-25T04:32:40.595Z,10.00
2022-08-25T04:35:07.543Z,11.20
2022-08-25T04:37:34.600Z,11.10
2022-08-25T04:40:01.647Z,11.00
2022-08-25T04:42:28.694Z,11.33
2022-08-25T04:44:55.745Z,10.87
2022-08-25T04:47:23.060Z,12.60
2022-08-25T04:49:49.659Z,10.67
2022-08-25T04:52:16.300Z,11.17
2022-08-25T04:54:43.844Z,10.97
2022-08-25T04:57:11.156Z,11.07
2022-08-25T04:59:38.194Z,10.70
2022-08-25T05:02:06.572Z,10.90
2022-08-25T05:04:35.350Z,11.37
2022-08-25T05:07:03.531Z,10.17
2022-08-25T05:09:32.635Z,9.90
2022-08-25T05:12:01.000Z,9.13
2022-08-25T05:14:28.684Z,8.67
2022-08-25T05:16:56.111Z,8.30
2022-08-25T05:19:24.104Z,8.63
2022-08-25T05:21:51.097Z,7.23
2022-08-25T05:24:18.587Z,7.07
2022-08-25T05:26:45.200Z,7.30
2022-08-25T05:29:12.106Z,6.50
2022-08-25T05:31:42.542Z,7.37
2022-08-25T05:34:12.195Z,7.10
2022-08-25T05:36:43.528Z,6.27
2022-08-25T05:39:10.994Z,6.33
2022-08-25T05:41:38.683Z,7.03
2022-08-25T05:44:05.408Z,5.83
2022-08-25T05:46:32.370Z,6.40
2022-08-25T05:48:59.192Z,6.27
2022-08-25T05:51:26.672Z,5.90
2022-08-25T05:53:53.670Z,6.37
2022-08-25T05:56:20.883Z,6.23
2022-08-25T05:58:48.046Z,6.53
2022-08-25T06:02:03.990Z,5.85
2022-08-25T06:04:30.671Z,6.45
2022-08-25T06:06:57.284Z,5.93
2022-08-25T06:09:24.256Z,6.55
2022-08-25T06:11:54.728Z,5.22
2022-08-25T06:14:23.297Z,5.53
2022-08-25T06:16:51.599Z,5.07
2022-08-25T06:19:18.548Z,5.13
2022-08-25T06:21:45.123Z,5.60
2022-08-25T06:24:15.378Z,5.80
2022-08-25T06:26:43.972Z,5.82
2022-08-25T06:29:10.554Z,5.78
2022-08-25T06:31:37.130Z,6.00
2022-08-25T06:34:04.104Z,5.88
2022-08-25T06:36:30.631Z,5.18
2022-08-25T06:38:57.299Z,4.78
2022-08-25T06:41:25.631Z,4.70
2022-08-25T06:44:05.210Z,5.50
2022-08-25T06:46:36.258Z,4.90
2022-08-25T06:49:04.881Z,4.25
2022-08-25T06:51:31.627Z,5.45
2022-08-25T06:53:58.190Z,5.07
2022-08-25T06:56:24.824Z,4.82
2022-08-25T06:58:53.593Z,4.72
2022-08-25T07:01:25.772Z,5.25
2022-08-25T07:03:57.676Z,5.00
2022-08-25T07:06:27.035Z,4.68
2022-08-25T07:08:54.203Z,4.45
2022-08-25T07:11:21.381Z,5.10
2022-08-25T07:13:49.138Z,5.10
2022-08-25T07:16:18.348Z,5.65
2022-08-25T07:18:46.546Z,5.15
2022-08-25T07:21:13.913Z,6.63
2022-08-25T07:23:42.205Z,5.57
2022-08-25T07:26:36.315Z,5.63
2022-08-25T07:29:01.965Z,5.75
2022-08-25T07:31:30.051Z,5.90
2022-08-25T07:34:16.622Z,5.90
2022-08-25T07:36:43.987Z,5.93
2022-08-25T07:39:11.103Z,5.75
2022-08-25T07:41:40.572Z,4.97
2022-08-25T07:44:08.315Z,4.50
2022-08-25T07:46:35.159Z,5.05
2022-08-25T07:49:01.974Z,4.85
2022-08-25T07:51:29.007Z,5.00
2022-08-25T07:53:55.752Z,7.20
2022-08-25T07:56:22.730Z,5.93
2022-08-25T07:58:49.916Z,5.03
2022-08-25T08:01:18.906Z,4.22
2022-08-25T08:03:50.474Z,5.10
2022-08-25T08:06:21.452Z,4.63
2022-08-25T08:08:49.687Z,5.30
2022-08-25T08:11:23.273Z,5.03
2022-08-25T08:13:51.656Z,4.70
2022-08-25T08:16:19.767Z,5.53
2022-08-25T08:18:47.052Z,5.05
2022-08-25T08:21:26.331Z,5.97
2022-08-25T08:23:59.078Z,4.85
2022-08-25T08:26:48.140Z,4.72
2022-08-25T08:29:16.337Z,5.05
2022-08-25T08:31:48.370Z,5.43
2022-08-25T08:34:16.443Z,5.32
2022-08-25T08:36:43.135Z,6.30
2022-08-25T08:39:12.502Z,5.78
2022-08-25T08:42:13.164Z,5.65
2022-08-25T08:45:01.979Z,5.28
2022-08-25T08:48:02.854Z,4.90
2022-08-25T08:50:51.659Z,5.05
2022-08-25T08:53:27.816Z,6.10
2022-08-25T08:56:14.144Z,5.00
2022-08-25T08:58:55.580Z,5.40
2022-08-25T09:01:33.398Z,7.20
2022-08-25T09:04:09.422Z,6.22
2022-08-25T09:06:48.516Z,7.15
2022-08-25T09:09:27.763Z,5.63
2022-08-25T09:12:12.390Z,5.82
2022-08-25T09:15:02.913Z,5.78
2022-08-25T09:18:00.695Z,6.10
2022-08-25T09:20:53.366Z,5.75
2022-08-25T09:23:27.328Z,6.03
2022-08-25T09:26:03.434Z,5.30
2022-08-25T09:28:37.153Z,6.00
2022-08-25T09:31:29.609Z,6.18
2022-08-25T09:33:59.792Z,5.82
2022-08-25T09:36:26.992Z,6.07
2022-08-25T09:38:55.247Z,6.60
2022-08-25T09:41:51.996Z,5.00
2022-08-25T09:44:33.126Z,5.13
2022-08-25T09:47:17.881Z,6.23
2022-08-25T09:49:45.958Z,6.67
2022-08-25T09:52:29.029Z,6.53
2022-08-25T09:54:58.024Z,5.73
2022-08-25T09:57:29.091Z,5.53
2022-08-25T09:59:57.853Z,6.10
2022-08-25T10:02:28.520Z,6.40
2022-08-25T10:04:56.169Z,5.60
2022-08-25T10:07:27.990Z,5.80
2022-08-25T10:09:59.536Z,5.35
2022-08-25T10:12:33.363Z,6.77
2022-08-25T10:15:00.126Z,5.63
2022-08-25T10:17:30.566Z,6.30
2022-08-25T10:20:22.902Z,5.90
2022-08-25T10:22:50.380Z,5.43
2022-08-25T10:25:28.030Z,5.40
2022-08-25T10:28:25.376Z,5.83
2022-08-25T10:31:20.309Z,5.97
2022-08-25T10:34:16.610Z,6.00
2022-08-25T10:37:32.609Z,5.97
2022-08-25T10:40:08.542Z,5.40
2022-08-25T10:43:24.085Z,6.07
2022-08-25T10:46:08.940Z,4.90
2022-08-25T10:48:56.416Z,4.67
2022-08-25T10:51:41.839Z,5.00
2022-08-25T10:54:53.328Z,5.53
2022-08-25T10:57:46.681Z,5.50
2022-08-25T11:00:18.150Z,5.30
2022-08-25T11:03:03.415Z,5.43
2022-08-25T11:05:47.752Z,6.00
2022-08-25T11:08:36.354Z,5.33
2022-08-25T11:11:13.183Z,4.70
2022-08-25T11:14:20.986Z,5.87
2022-08-25T11:17:06.176Z,5.03
2022-08-25T11:19:57.204Z,5.10
2022-08-25T11:22:36.081Z,5.00
2022-08-25T11:25:21.764Z,5.67
2022-08-25T11:28:01.967Z,6.23
2022-08-25T11:30:28.963Z,5.90
2022-08-25T11:32:56.748Z,5.63
2022-08-25T11:35:51.051Z,5.20
2022-08-25T11:38:51.774Z,5.63
2022-08-25T11:41:36.116Z,5.10
2022-08-25T11:44:26.810Z,5.33
2022-08-25T11:46:59.360Z,5.13
2022-08-25T11:49:46.161Z,5.03
2022-08-25T11:52:49.069Z,6.67
2022-08-25T11:55:25.673Z,5.47
2022-08-25T11:58:13.153Z,5.70
2022-08-25T12:00:43.480Z,5.50
2022-08-25T12:03:31.531Z,4.87
2022-08-25T12:06:28.258Z,5.83
2022-08-25T12:09:01.412Z,5.50
2022-08-25T12:11:46.892Z,5.80
2022-08-25T12:14:27.965Z,5.80
2022-08-25T12:16:55.010Z,5.43
2022-08-25T12:19:37.973Z,5.80
2022-08-25T12:22:04.806Z,5.30
2022-08-25T12:24:57.303Z,5.23
2022-08-25T12:27:33.610Z,5.67
2022-08-25T12:30:21.883Z,5.43
2022-08-25T12:33:12.987Z,5.43
2022-08-25T12:36:03.581Z,5.57
2022-08-25T12:38:43.560Z,4.90
2022-08-25T12:41:30.900Z,4.60
2022-08-25T12:44:35.538Z,4.67
2022-08-25T12:47:23.465Z,4.83
2022-08-25T12:49:50.824Z,4.82
2022-08-25T12:52:20.887Z,5.33
2022-08-25T12:55:14.059Z,4.53
2022-08-25T12:57:45.086Z,5.10
2022-08-25T13:00:23.635Z,5.47
2022-08-25T13:03:30.319Z,5.07
2022-08-25T13:06:21.935Z,5.27
2022-08-25T13:09:03.775Z,5.63
2022-08-25T13:11:43.146Z,5.03
2022-08-25T13:14:17.792Z,5.00
2022-08-25T13:16:56.068Z,4.70
2022-08-25T13:19:24.263Z,4.50
2022-08-25T13:21:51.590Z,5.37
2022-08-25T13:24:30.490Z,4.93
2022-08-25T13:27:18.045Z,5.40
2022-08-25T13:29:54.564Z,4.70
2022-08-25T13:32:32.475Z,5.50
2022-08-25T13:35:21.325Z,5.60
2022-08-25T13:37:49.575Z,4.73
2022-08-25T13:40:26.911Z,5.80
2022-08-25T13:42:59.098Z,5.40
2022-08-25T13:45:31.846Z,5.43
2022-08-25T13:47:59.208Z,5.30
2022-08-25T13:50:26.315Z,4.70
2022-08-25T13:52:57.115Z,5.40
2022-08-25T13:55:38.155Z,4.93
2022-08-25T13:58:38.690Z,5.07
2022-08-25T14:01:47.201Z,4.90
2022-08-25T14:04:24.545Z,5.37
2022-08-25T14:07:20.810Z,5.93
2022-08-25T14:09:56.859Z,5.00
2022-08-25T14:12:39.891Z,4.97
2022-08-25T14:15:20.271Z,4.97
2022-08-25T14:18:00.501Z,4.83
2022-08-25T14:20:31.392Z,4.73
2022-08-25T14:23:02.628Z,5.57
2022-08-25T14:25:30.494Z,4.57
2022-08-25T14:28:07.449Z,4.60
2022-08-25T14:30:36.663Z,4.60
2022-08-25T14:33:03.983Z,4.70
2022-08-25T14:35:31.383Z,4.95
2022-08-25T14:37:58.651Z,4.33
2022-08-25T14:40:25.462Z,5.30
2022-08-25T14:42:52.180Z,5.17
2022-08-25T14:45:19.257Z,5.77
2022-08-25T14:47:49.816Z,6.07
2022-08-25T14:50:20.949Z,5.37
2022-08-25T14:52:48.239Z,5.33
2022-08-25T14:55:31.526Z,5.40
2022-08-25T14:57:59.758Z,6.30
2022-08-25T15:00:26.539Z,5.43
2022-08-25T15:02:55.012Z,5.20
2022-08-25T15:05:28.309Z,4.87
2022-08-25T15:08:14.998Z,4.90
2022-08-25T15:10:43.388Z,4.80
2022-08-25T15:13:10.854Z,5.00
2022-08-25T15:15:52.156Z,4.97
2022-08-25T15:18:20.948Z,4.77
2022-08-25T15:20:50.049Z,4.97
2022-08-25T15:23:20.913Z,5.77
2022-08-25T15:25:52.792Z,5.50
2022-08-25T15:28:21.967Z,5.50
2022-08-25T15:30:48.735Z,5.03
2022-08-25T15:33:15.282Z,5.20
2022-08-25T15:35:41.872Z,5.27
2022-08-25T15:38:10.191Z,5.00
2022-08-25T15:40:38.976Z,4.77
2022-08-25T15:43:06.889Z,4.77
2022-08-25T15:45:35.771Z,5.43
2022-08-25T15:48:02.498Z,5.30
2022-08-25T15:50:29.914Z,4.70
2022-08-25T15:52:56.714Z,5.53
2022-08-25T15:55:23.446Z,5.23
2022-08-25T15:57:50.778Z,4.90
2022-08-25T16:00:18.935Z,5.07
2022-08-25T16:02:46.308Z,5.47
2022-08-25T16:05:13.811Z,5.33
2022-08-25T16:07:45.713Z,5.70
2022-08-25T16:10:13.804Z,4.93
2022-08-25T16:12:42.753Z,4.60
2022-08-25T16:15:12.262Z,5.07
2022-08-25T16:17:40.718Z,4.83
2022-08-25T16:20:13.715Z,4.70
2022-08-25T16:22:41.237Z,4.53
2022-08-25T16:25:08.436Z,5.97
2022-08-25T16:27:38.589Z,4.77
2022-08-25T16:30:07.993Z,5.20
2022-08-25T16:32:35.198Z,5.73
2022-08-25T16:35:03.148Z,5.03
2022-08-25T16:37:30.071Z,4.93
2022-08-25T16:39:57.565Z,5.20
2022-08-25T16:42:24.368Z,7.00
2022-08-25T16:44:54.121Z,4.90
2022-08-25T16:47:25.200Z,4.97
2022-08-25T16:49:54.271Z,5.90
2022-08-25T16:52:40.717Z,5.73
2022-08-25T16:55:16.053Z,4.80
2022-08-25T16:57:47.725Z,5.17
2022-08-25T17:08:28.164Z,5.53
2022-08-25T17:11:57.180Z,5.20
2022-08-25T17:15:39.856Z,5.10
2022-08-25T17:21:40.039Z,5.03
2022-08-25T17:24:59.379Z,5.83
2022-08-25T17:31:02.239Z,5.80
2022-08-25T17:34:29.159Z,6.20
2022-08-25T17:37:19.270Z,5.23
2022-08-25T17:40:14.663Z,4.83
2022-08-25T17:56:47.495Z,5.73
2022-08-25T18:00:04.129Z,5.30
2022-08-25T18:06:03.928Z,4.87
2022-08-25T18:09:49.384Z,5.10
2022-08-25T18:16:33.150Z,5.20
2022-08-25T19:11:52.591Z,6.23
2022-08-25T19:14:21.675Z,5.70
2022-08-25T19:16:48.696Z,6.07
2022-08-25T19:19:15.495Z,5.97
2022-08-25T19:21:42.880Z,5.70
2022-08-25T19:24:12.272Z,5.87
2022-08-25T19:26:39.196Z,5.93
2022-08-25T19:29:09.279Z,5.30
2022-08-25T19:31:37.476Z,6.57
2022-08-25T19:34:07.973Z,5.37
2022-08-25T19:36:34.527Z,6.53
2022-08-25T19:39:01.388Z,6.20
2022-08-25T19:41:31.126Z,6.03
2022-08-25T19:43:58.686Z,6.17
2022-08-25T19:46:32.768Z,5.47
2022-08-25T19:49:17.368Z,5.97
2022-08-25T19:51:51.048Z,6.47
2022-08-25T19:54:26.265Z,6.63
2022-08-25T19:56:54.797Z,6.33
2022-08-25T19:59:40.364Z,6.27
2022-08-25T20:02:15.916Z,6.23
2022-08-25T20:04:49.890Z,5.80
2022-08-25T20:07:19.314Z,6.07
2022-08-25T20:09:46.292Z,6.70
2022-08-25T20:14:40.200Z,6.00
2022-08-25T20:17:13.166Z,6.90
2022-08-25T20:19:52.458Z,6.30
2022-08-25T20:22:25.009Z,6.30
2022-08-25T20:24:56.240Z,6.80
2022-08-25T20:27:28.169Z,5.70
2022-08-25T20:29:55.375Z,5.73
2022-08-25T20:32:24.021Z,6.00
2022-08-25T20:34:53.815Z,5.93
2022-08-25T20:37:22.484Z,5.80
2022-08-25T20:39:49.167Z,7.07
2022-08-25T20:42:16.308Z,7.70
2022-08-25T20:44:43.233Z,6.53
2022-08-25T20:47:10.991Z,6.27
2022-08-25T20:49:43.642Z,6.70
2022-08-25T20:52:10.689Z,7.33
2022-08-25T20:54:37.526Z,7.00
2022-08-25T20:57:04.406Z,7.70
2022-08-25T20:59:35.099Z,6.93
2022-08-25T21:02:02.141Z,6.20
2022-08-25T21:04:30.223Z,7.03
2022-08-25T21:07:00.333Z,8.60
2022-08-25T21:09:28.370Z,7.43
2022-08-25T21:11:57.342Z,8.60
2022-08-25T21:14:25.406Z,8.10
2022-08-25T21:16:54.111Z,7.70
2022-08-25T21:19:26.707Z,8.10
2022-08-25T21:22:00.030Z,8.13
2022-08-25T21:24:28.308Z,8.43
2022-08-25T21:26:57.687Z,8.40
2022-08-25T21:29:25.952Z,8.17
2022-08-25T21:31:56.075Z,8.00
2022-08-25T21:34:23.399Z,9.90
2022-08-25T21:36:50.510Z,8.27
2022-08-25T21:39:17.456Z,8.53
2022-08-25T21:41:45.403Z,9.20
2022-08-25T21:44:13.310Z,9.23
2022-08-25T21:46:41.319Z,8.03
2022-08-25T21:49:08.498Z,8.93
2022-08-25T21:51:41.464Z,10.20
2022-08-25T21:54:13.428Z,10.23
2022-08-25T21:56:42.020Z,9.80
2022-08-25T21:59:20.833Z,10.27
2022-08-25T22:01:48.197Z,9.70
2022-08-25T22:04:15.778Z,10.20
2022-08-25T22:06:42.630Z,10.67
2022-08-25T22:09:12.785Z,10.90
2022-08-25T22:11:41.867Z,9.93
2022-08-25T22:14:09.909Z,10.40
2022-08-25T22:16:38.094Z,10.40
2022-08-25T22:19:07.248Z,11.10
2022-08-25T22:21:35.547Z,11.40
2022-08-25T22:24:03.281Z,11.43
2022-08-25T22:26:31.865Z,10.57
2022-08-25T22:28:59.512Z,10.13
2022-08-25T22:31:27.795Z,11.50
2022-08-25T22:33:56.758Z,11.30
2022-08-25T22:36:36.432Z,11.97
2022-08-25T22:39:05.065Z,11.43
2022-08-25T22:41:31.960Z,11.20
2022-08-25T22:44:00.114Z,10.83
2022-08-25T22:46:32.309Z,10.80
2022-08-25T22:48:59.987Z,10.70
2022-08-25T22:51:31.368Z,10.83
2022-08-25T22:53:59.857Z,11.37
2022-08-25T22:56:34.292Z,11.00
2022-08-25T22:59:04.456Z,11.80
2022-08-25T23:01:32.001Z,11.03
2022-08-25T23:04:00.904Z,12.23
2022-08-25T23:06:28.873Z,11.60
2022-08-25T23:08:56.256Z,11.80
2022-08-25T23:11:24.344Z,11.03
2022-08-25T23:13:55.314Z,10.33
2022-08-25T23:16:22.849Z,11.30
2022-08-25T23:18:49.571Z,11.57
2022-08-25T23:21:48.569Z,11.20
2022-08-25T23:24:27.087Z,11.10
2022-08-25T23:26:58.785Z,10.70
2022-08-25T23:29:25.742Z,11.03
2022-08-25T23:31:53.719Z,10.57
2022-08-25T23:34:21.675Z,11.03
2022-08-25T23:36:48.798Z,10.80
2022-08-25T23:39:15.418Z,12.17
2022-08-25T23:41:42.234Z,12.67
2022-08-25T23:44:09.288Z,11.30
2022-08-25T23:46:39.306Z,11.70
2022-08-25T23:49:09.410Z,10.37
2022-08-25T23:51:38.193Z,12.70
2022-08-25T23:54:09.625Z,11.37
2022-08-25T23:56:42.525Z,10.50
2022-08-25T23:59:24.242Z,10.83
